Time;durP1;ratioP1;P1;durP2;ratioP2;P2;SDS_P1;SDS_P2;PMS_P1;PMS_P2;Temp;Humidity;BMP_temperature;BMP_pressure;BME280_temperature;BME280_humidity;BME280_pressure;Samples;Min_cycle;Max_cycle;Signal;HPM_P1;HPM_P2
2022/09/26 00:01:36;;;;;;;47.22;35.78;;;;;;;28.73;73.40;100750.16;5069603;28;66750;-38
2022/09/26 00:04:18;;;;;;;60.08;38.65;;;;;;;27.76;73.03;100581.63;5077012;28;70231;-39
2022/09/26 00:06:56;;;;;;;60.15;40.92;;;;;;;28.80;73.43;100761.75;5079880;28;67533;-39
2022/09/26 00:09:29;;;;;;;61.97;40.55;;;;;;;28.76;74.33;100749.72;5080060;27;70122;-36
2022/09/26 00:12:03;;;;;;;58.17;41.72;;;;;;;28.77;73.63;100753.25;5077702;27;66659;-40
2022/09/26 00:14:35;;;;;;;53.17;38.65;;;;;;;28.88;74.32;100769.63;5075473;27;70456;-43
2022/09/26 00:17:09;;;;;;;56.88;38.85;;;;;;;28.90;75.50;100778.38;5051685;28;65942;-39
2022/09/26 00:19:42;;;;;;;49.63;37.47;;;;;;;28.78;75.95;100761.16;5073239;28;71141;-38
2022/09/26 00:22:15;;;;;;;59.38;39.08;;;;;;;28.89;74.53;100776.72;5079476;28;66156;-38
2022/09/26 00:24:47;;;;;;;48.92;36.20;;;;;;;28.94;75.63;100790.41;5078995;28;70311;-39
2022/09/26 00:27:21;;;;;;;49.83;33.55;;;;;;;28.89;76.68;100782.13;5077774;27;67304;-38
2022/09/26 00:29:54;;;;;;;49.25;33.90;;;;;;;28.51;76.50;100717.16;5080728;28;70194;-39
2022/09/26 00:32:28;;;;;;;46.45;32.28;;;;;;;28.96;75.94;100793.72;5076927;27;66713;-38
2022/09/26 00:35:00;;;;;;;39.25;31.50;;;;;;;28.82;76.49;100781.28;5077977;28;70943;-40
2022/09/26 00:37:39;;;;;;;39.40;30.73;;;;;;;29.05;76.95;100812.44;5075257;28;66980;-39
2022/09/26 00:40:12;;;;;;;38.78;31.02;;;;;;;29.05;76.24;100818.66;5077209;27;70319;-39
2022/09/26 00:42:45;;;;;;;38.42;30.67;;;;;;;29.07;76.65;100821.19;5078957;28;66636;-40
2022/09/26 00:45:18;;;;;;;40.53;31.42;;;;;;;29.11;77.41;100833.22;5078584;27;70691;-40
2022/09/26 00:48:01;;;;;;;44.72;30.35;;;;;;;28.94;74.06;100785.00;5071762;28;66800;-39
2022/09/26 00:50:39;;;;;;;36.50;27.02;;;;;;;28.82;72.31;100764.25;5090394;27;69926;-39
2022/09/26 00:53:20;;;;;;;30.25;25.52;;;;;;;28.85;71.56;100775.47;5077457;27;65565;-38
2022/09/26 00:55:59;;;;;;;30.92;27.45;;;;;;;28.89;71.60;100771.31;5068606;28;69912;-40
2022/09/26 00:59:21;;;;;;;34.28;26.27;;;;;;;29.20;71.22;100842.78;5067495;28;66386;-42
2022/09/26 01:01:57;;;;;;;31.95;25.38;;;;;;;29.34;70.70;100841.72;5066266;28;71012;-39
2022/09/26 01:04:34;;;;;;;29.05;25.50;;;;;;;28.90;70.65;100772.16;5070757;27;67376;-40
2022/09/26 01:07:13;;;;;;;30.10;25.35;;;;;;;29.42;70.34;100866.81;5074578;28;70289;-38
2022/09/26 01:09:47;;;;;;;27.35;23.98;;;;;;;28.59;70.50;100721.50;5076833;28;65896;-38
2022/09/26 01:12:21;;;;;;;31.70;24.20;;;;;;;29.45;70.52;100861.00;5086673;27;70822;-38
2022/09/26 01:14:55;;;;;;;26.50;23.85;;;;;;;29.35;70.44;100843.34;5078887;28;66817;-39
2022/09/26 01:17:28;;;;;;;31.58;25.67;;;;;;;29.40;70.54;100850.84;5078414;28;70875;-37
2022/09/26 01:20:01;;;;;;;28.10;25.05;;;;;;;29.47;69.74;100858.94;5079798;28;66288;-38
2022/09/26 01:23:15;;;;;;;28.35;24.42;;;;;;;29.27;69.97;100859.78;5075968;27;70120;-38
2022/09/26 01:26:34;;;;;;;30.50;25.15;;;;;;;29.35;69.95;100856.88;5036326;28;66132;-38
2022/09/26 01:29:21;;;;;;;26.23;23.48;;;;;;;29.46;69.57;100859.97;5074376;28;70092;-40
2022/09/26 01:35:10;;;;;;;26.58;23.85;;;;;;;29.50;69.57;100863.91;5076660;28;70745;-40
2022/09/26 01:38:00;;;;;;;26.40;23.60;;;;;;;29.51;69.14;100876.41;5048265;28;65889;-40
2022/09/26 01:40:45;;;;;;;24.83;22.35;;;;;;;29.47;68.99;100869.72;5086227;27;70486;-40
2022/09/26 01:43:18;;;;;;;24.90;22.50;;;;;;;29.55;68.88;100872.22;5073235;28;66525;-39
2022/09/26 01:46:13;;;;;;;26.45;23.55;;;;;;;29.37;68.73;100860.19;5078728;28;72295;-39
2022/09/26 01:48:51;;;;;;;26.75;23.80;;;;;;;29.59;69.31;100884.28;5076279;28;66896;-39
2022/09/26 01:51:28;;;;;;;27.70;23.25;;;;;;;29.54;68.44;100873.25;5076745;28;70113;-38
2022/09/26 01:54:25;;;;;;;24.60;22.33;;;;;;;29.49;68.54;100886.56;5056818;28;66496;-43
2022/09/26 01:57:00;;;;;;;25.90;23.35;;;;;;;29.59;69.14;100874.28;5067942;28;70731;-37
2022/09/26 01:59:40;;;;;;;30.27;24.23;;;;;;;29.16;68.63;100809.09;5071539;28;67555;-39
2022/09/26 02:02:20;;;;;;;23.83;21.52;;;;;;;29.26;68.16;100825.72;5077356;28;70866;-41
2022/09/26 02:05:00;;;;;;;25.90;22.98;;;;;;;29.70;68.24;100896.31;5071051;28;66552;-39
2022/09/26 02:07:57;;;;;;;26.17;23.40;;;;;;;29.59;68.66;100900.50;5073768;28;70658;-39
2022/09/26 02:11:03;;;;;;;25.00;22.52;;;;;;;29.55;68.73;100899.25;5078836;28;67207;-41
2022/09/26 02:13:56;;;;;;;24.60;22.17;;;;;;;29.24;67.98;100822.41;5053744;28;70830;-39
2022/09/26 02:16:36;;;;;;;26.20;22.60;;;;;;;29.70;68.32;100902.59;5075217;27;67118;-39
2022/09/26 02:19:41;;;;;;;24.65;21.92;;;;;;;29.35;67.95;100851.47;5077120;28;70161;-39
2022/09/26 02:22:14;;;;;;;26.67;22.95;;;;;;;29.78;68.10;100898.78;5075140;28;66976;-39
2022/09/26 02:24:47;;;;;;;25.27;22.70;;;;;;;29.24;68.25;100806.19;5074201;28;70892;-38
2022/09/26 02:27:20;;;;;;;23.80;21.67;;;;;;;29.83;68.33;100902.53;5077658;27;66873;-42
2022/09/26 02:29:54;;;;;;;24.08;21.77;;;;;;;29.83;67.90;100891.72;5073926;28;70788;-39
2022/09/26 02:32:31;;;;;;;24.75;22.23;;;;;;;29.77;67.49;100880.91;5077464;28;67080;-39
2022/09/26 02:35:53;;;;;;;26.10;21.27;;;;;;;29.58;68.16;100852.88;5074216;27;70546;-39
2022/09/26 02:38:05;;;;;;;24.48;22.15;;;;;;;29.78;67.80;100883.44;5075000;28;66159;-39
2022/09/26 02:40:59;;;;;;;23.65;21.17;;;;;;;29.87;67.73;100905.66;5058158;28;70884;-38
2022/09/26 02:43:43;;;;;;;22.48;20.48;;;;;;;29.91;67.35;100908.75;5072197;28;67126;-38
2022/09/26 02:46:46;;;;;;;21.77;19.67;;;;;;;29.86;67.33;100892.34;5075153;28;71162;-39
2022/09/26 02:49:39;;;;;;;21.55;19.70;;;;;;;29.95;67.90;100897.31;5068859;28;66906;-38
2022/09/26 02:52:20;;;;;;;22.05;19.75;;;;;;;29.98;68.00;100898.75;5077543;28;70406;-38
2022/09/26 02:55:11;;;;;;;21.52;19.50;;;;;;;29.33;67.58;100806.78;5068420;27;65981;-38
2022/09/26 02:57:47;;;;;;;21.00;19.10;;;;;;;30.04;67.73;100895.19;5073261;28;70085;-39
2022/09/26 03:00:27;;;;;;;21.63;19.30;;;;;;;29.93;67.11;100872.34;5075094;28;66860;-37
2022/09/26 03:03:18;;;;;;;20.35;18.33;;;;;;;30.08;67.49;100885.59;5078087;27;70718;-39
2022/09/26 03:05:55;;;;;;;19.60;17.85;;;;;;;30.08;67.09;100885.59;5071189;27;67603;-39
2022/09/26 03:08:32;;;;;;;18.83;17.27;;;;;;;29.30;67.11;100745.91;5075873;28;70754;-39
2022/09/26 03:11:09;;;;;;;19.25;17.55;;;;;;;30.15;67.38;100872.88;5081884;28;66595;-39
2022/09/26 03:13:43;;;;;;;18.95;17.00;;;;;;;30.16;67.49;100869.09;5077864;28;70529;-38
2022/09/26 03:16:17;;;;;;;18.38;16.70;;;;;;;30.16;66.78;100873.69;5078119;28;66629;-39
2022/09/26 03:18:53;;;;;;;18.00;16.35;;;;;;;29.77;67.27;100795.22;5079274;28;70308;-42
2022/09/26 03:21:27;;;;;;;18.05;16.55;;;;;;;30.25;67.29;100864.31;5079077;28;66626;-39
2022/09/26 03:24:03;;;;;;;17.75;16.33;;;;;;;30.23;66.94;100856.41;5082268;27;70729;-39
2022/09/26 03:26:36;;;;;;;17.60;16.02;;;;;;;30.27;66.79;100852.22;5081211;28;67121;-38
2022/09/26 03:29:09;;;;;;;17.15;15.85;;;;;;;30.18;66.56;100839.97;5079189;28;70238;-38
2022/09/26 03:31:43;;;;;;;16.17;14.95;;;;;;;30.24;66.71;100844.53;5070924;28;66075;-40
2022/09/26 03:34:17;;;;;;;17.25;15.73;;;;;;;30.37;66.97;100856.31;5077806;27;70140;-39
2022/09/26 03:36:51;;;;;;;17.27;15.73;;;;;;;30.38;66.28;100853.41;5080825;28;66672;-38
2022/09/26 03:39:25;;;;;;;16.35;14.93;;;;;;;30.38;66.88;100842.59;5075950;28;70994;-39
2022/09/26 03:42:13;;;;;;;16.75;15.35;;;;;;;29.98;66.15;100768.94;5078799;27;66751;-41
2022/09/26 03:44:48;;;;;;;16.33;15.02;;;;;;;30.46;66.73;100841.50;5081034;28;70903;-38
2022/09/26 03:47:56;;;;;;;16.58;15.27;;;;;;;30.07;66.26;100781.16;5074648;28;66983;-39
2022/09/26 03:50:28;;;;;;;15.85;14.75;;;;;;;30.49;66.49;100832.94;5073860;27;71083;-39
2022/09/26 03:53:01;;;;;;;16.60;15.23;;;;;;;30.55;66.37;100836.66;5079716;28;66307;-39
2022/09/26 03:55:34;;;;;;;17.25;15.85;;;;;;;30.48;66.17;100813.16;5081020;27;70559;-38
2022/09/26 03:58:07;;;;;;;17.25;15.95;;;;;;;30.61;65.83;100828.47;5066178;28;66665;-40
2022/09/26 04:00:41;;;;;;;16.33;14.95;;;;;;;30.54;66.29;100800.63;5078596;28;69930;-39
2022/09/26 04:03:14;;;;;;;16.20;15.10;;;;;;;30.62;65.86;100808.50;5079645;28;66437;-39
2022/09/26 04:05:47;;;;;;;16.73;15.20;;;;;;;30.70;65.61;100812.78;5077536;28;70078;-41
2022/09/26 04:08:19;;;;;;;16.25;14.75;;;;;;;30.72;65.88;100805.28;5076678;27;66054;-40
2022/09/26 04:10:52;;;;;;;15.90;14.70;;;;;;;30.64;65.85;100787.41;5068140;28;70612;-41
2022/09/26 04:13:26;;;;;;;16.83;15.52;;;;;;;30.78;65.49;100798.97;5071508;27;67127;-43
2022/09/26 04:16:19;;;;;;;17.70;16.20;;;;;;;30.81;65.25;100798.53;5073953;27;70979;-39
2022/09/26 04:18:57;;;;;;;18.33;16.63;;;;;;;30.83;65.35;100787.50;5075476;27;66817;-40
2022/09/26 04:21:33;;;;;;;17.73;16.23;;;;;;;30.85;65.51;100780.00;5076511;28;71111;-39
2022/09/26 04:24:08;;;;;;;16.50;15.30;;;;;;;30.91;65.39;100781.81;5072215;27;66515;-41
2022/09/26 04:26:42;;;;;;;17.25;15.93;;;;;;;30.47;65.47;100703.22;5080046;28;71106;-41
2022/09/26 04:29:15;;;;;;;18.13;16.73;;;;;;;30.95;65.20;100766.75;5069706;28;66505;-38
2022/09/26 04:32:08;;;;;;;17.20;15.93;;;;;;;30.97;65.29;100763.84;5066747;28;68797;-41
2022/09/26 04:34:51;;;;;;;20.50;18.60;;;;;;;30.98;65.27;100758.22;5079708;28;66410;-40
2022/09/26 04:37:24;;;;;;;18.58;17.08;;;;;;;30.86;64.96;100722.06;5077416;27;70686;-39
2022/09/26 04:39:56;;;;;;;17.50;16.15;;;;;;;31.02;65.49;100745.84;5079708;28;67234;-39
2022/09/26 04:42:35;;;;;;;17.42;16.15;;;;;;;30.87;65.00;100712.88;5079809;28;70485;-39
2022/09/26 04:45:08;;;;;;;17.15;15.68;;;;;;;31.08;65.25;100744.94;5076914;28;67048;-39
2022/09/26 04:47:41;;;;;;;15.73;14.52;;;;;;;31.07;65.08;100737.88;5076066;28;69852;-41
2022/09/26 04:50:29;;;;;;;15.55;14.55;;;;;;;31.12;64.82;100737.19;5077537;28;67249;-39
2022/09/26 04:53:10;;;;;;;16.20;15.20;;;;;;;31.12;64.89;100727.22;5075645;28;69991;-38
2022/09/26 04:55:57;;;;;;;16.48;15.18;;;;;;;31.15;64.98;100715.91;5078304;28;66908;-43
2022/09/26 04:58:32;;;;;;;15.95;14.73;;;;;;;31.20;64.45;100715.22;5078556;28;70253;-41
2022/09/26 05:01:07;;;;;;;15.30;14.27;;;;;;;30.77;64.48;100640.25;5075848;28;66298;-39
2022/09/26 05:04:00;;;;;;;14.82;13.93;;;;;;;31.24;64.93;100704.78;5072573;28;69737;-38
2022/09/26 05:06:34;;;;;;;15.75;14.60;;;;;;;31.26;64.37;100702.63;5072702;28;66918;-40
2022/09/26 05:09:09;;;;;;;14.80;13.68;;;;;;;31.26;64.69;100689.94;5078345;28;69634;-40
2022/09/26 05:12:01;;;;;;;16.40;15.15;;;;;;;31.29;64.59;100685.94;5068029;28;65858;-39
2022/09/26 05:14:35;;;;;;;16.98;15.75;;;;;;;31.25;64.61;100660.34;5071412;28;71025;-41
2022/09/26 05:17:08;;;;;;;16.90;15.68;;;;;;;31.34;64.08;100669.81;5074047;28;66292;-40
2022/09/26 05:19:42;;;;;;;18.02;16.48;;;;;;;31.14;64.13;100627.53;5074666;28;70333;-42
2022/09/26 05:22:30;;;;;;;16.85;15.60;;;;;;;30.92;64.17;100580.31;5073508;28;67222;-39
2022/09/26 05:27:54;;;;;;;17.85;16.45;;;;;;;31.39;63.93;100641.00;5071718;28;66097;-41
2022/09/26 05:30:30;;;;;;;16.80;15.50;;;;;;;31.42;64.19;100626.16;5076053;28;70907;-41
2022/09/26 05:33:03;;;;;;;17.55;16.38;;;;;;;31.34;64.09;100608.31;5077375;27;67080;-40
2022/09/26 05:35:37;;;;;;;17.92;16.35;;;;;;;31.25;64.25;100584.47;5091253;27;70515;-40
2022/09/26 05:38:10;;;;;;;16.90;15.65;;;;;;;31.34;64.24;100583.09;5071122;28;66394;-39
2022/09/26 05:40:56;;;;;;;17.58;15.95;;;;;;;31.48;64.03;100597.31;5073549;28;70714;-39
2022/09/26 05:43:34;;;;;;;17.85;16.65;;;;;;;31.51;63.95;100594.97;5074368;28;65918;-39
2022/09/26 05:46:11;;;;;;;18.75;17.13;;;;;;;31.44;63.99;100577.97;5076671;28;70675;-39
2022/09/26 05:48:49;;;;;;;18.65;17.45;;;;;;;31.52;63.85;100577.63;5090245;27;66366;-41
2022/09/26 05:51:24;;;;;;;17.90;16.65;;;;;;;31.36;63.92;100538.47;5073384;28;70878;-38
2022/09/26 05:53:57;;;;;;;17.63;16.40;;;;;;;31.43;63.82;100538.38;5073607;27;65882;-38
2022/09/26 05:56:36;;;;;;;18.85;17.27;;;;;;;31.43;63.62;100527.53;5066721;28;70478;-41
2022/09/26 05:59:37;;;;;;;18.55;17.30;;;;;;;31.23;63.89;100484.47;5060564;28;66947;-40
2022/09/26 06:02:41;;;;;;;17.77;16.40;;;;;;;31.60;63.64;100533.94;5055729;27;70588;-39
2022/09/26 06:05:25;;;;;;;19.23;17.45;;;;;;;31.61;63.75;100530.16;5078028;28;66060;-39
2022/09/26 06:08:16;;;;;;;17.48;15.95;;;;;;;31.51;63.81;100502.81;5076360;28;69994;-38
2022/09/26 06:11:06;;;;;;;17.60;16.50;;;;;;;31.55;63.52;100498.56;5072786;28;65924;-41
2022/09/26 06:13:39;;;;;;;18.08;16.77;;;;;;;31.69;63.77;100503.75;5073452;28;70679;-39
2022/09/26 06:16:20;;;;;;;18.50;17.10;;;;;;;31.46;63.46;100467.44;5073035;28;66950;-39
2022/09/26 06:18:54;;;;;;;18.27;16.73;;;;;;;31.65;63.27;100486.28;5069727;28;69938;-41
2022/09/26 06:21:26;;;;;;;18.75;17.23;;;;;;;31.42;63.63;100449.16;5073275;28;67153;-37
2022/09/26 06:24:06;;;;;;;18.30;16.95;;;;;;;31.73;63.64;100491.38;5074177;28;71195;-38
2022/09/26 06:26:39;;;;;;;18.63;17.38;;;;;;;31.85;63.56;100497.63;5058876;28;66720;-38
2022/09/26 06:29:12;;;;;;;17.15;15.95;;;;;;;31.86;63.24;100501.97;5055290;28;70151;-39
2022/09/26 06:31:45;;;;;;;17.52;16.30;;;;;;;31.92;63.39;100500.25;5073828;28;65930;-39
2022/09/26 06:34:17;;;;;;;17.38;16.17;;;;;;;31.93;63.14;100494.59;5074930;28;70002;-39
2022/09/26 06:36:53;;;;;;;17.23;15.60;;;;;;;31.96;63.24;100494.13;5073435;27;66997;-39
2022/09/26 06:39:34;;;;;;;16.48;15.38;;;;;;;31.98;63.19;100497.44;5076712;28;70803;-38
2022/09/26 06:42:08;;;;;;;16.70;15.60;;;;;;;32.02;62.96;100498.59;5077457;27;66889;-39
2022/09/26 06:45:00;;;;;;;17.10;15.90;;;;;;;32.06;63.42;100496.22;5078907;27;69639;-38
2022/09/26 06:47:50;;;;;;;16.10;14.98;;;;;;;32.01;62.99;100475.25;5067866;28;66994;-41
2022/09/26 06:50:33;;;;;;;15.73;14.57;;;;;;;32.10;62.99;100478.41;5080442;27;70381;-40
2022/09/26 06:53:06;;;;;;;16.08;14.95;;;;;;;32.13;63.05;100483.38;5067232;28;66868;-38
2022/09/26 06:55:39;;;;;;;15.52;14.63;;;;;;;32.16;62.73;100509.19;5082316;28;70610;-39
2022/09/26 06:58:11;;;;;;;16.40;15.15;;;;;;;32.12;62.92;100499.88;5077118;28;67129;-39
2022/09/26 07:00:59;;;;;;;15.50;14.35;;;;;;;32.17;62.88;100511.66;5081748;28;70868;-39
2022/09/26 07:03:50;;;;;;;16.25;14.65;;;;;;;32.15;62.88;100511.09;5068179;28;66926;-39
2022/09/26 07:06:47;;;;;;;16.05;14.30;;;;;;;32.18;63.36;100531.47;5072553;27;70738;-38
2022/09/26 07:09:19;;;;;;;14.88;13.68;;;;;;;32.19;63.04;100519.56;5076965;28;66907;-39
2022/09/26 07:11:56;;;;;;;20.58;14.07;;;;;;;32.20;63.14;100522.03;5075115;28;70875;-39
2022/09/26 07:14:46;;;;;;;12.68;11.60;;;;;;;32.16;63.25;100510.03;5080971;27;67010;-39
2022/09/26 07:17:34;;;;;;;12.65;11.40;;;;;;;32.18;63.63;100512.47;5056296;28;69881;-41
2022/09/26 07:20:18;;;;;;;12.90;11.57;;;;;;;31.68;63.71;100426.16;5081772;28;66886;-38
2022/09/26 07:23:01;;;;;;;16.20;11.65;;;;;;;32.20;63.77;100504.94;5079589;28;70360;-40
2022/09/26 07:25:37;;;;;;;13.07;11.75;;;;;;;32.13;63.55;100479.84;5076204;27;66697;-38
2022/09/26 07:28:10;;;;;;;14.23;11.95;;;;;;;32.20;63.69;100485.94;5079172;28;70702;-38
2022/09/26 07:30:49;;;;;;;12.50;11.25;;;;;;;32.04;63.21;100455.78;5080148;28;66612;-38
2022/09/26 07:33:35;;;;;;;14.35;11.75;;;;;;;32.19;63.38;100470.72;5080585;28;69876;-39
2022/09/26 07:36:10;;;;;;;12.23;11.45;;;;;;;32.10;63.34;100448.56;5080029;28;66811;-39
2022/09/26 07:38:48;;;;;;;11.98;10.95;;;;;;;31.80;63.22;100397.97;5077865;28;70177;-38
2022/09/26 07:41:22;;;;;;;12.05;10.95;;;;;;;32.18;63.36;100466.34;5078435;28;66303;-40
2022/09/26 07:43:54;;;;;;;11.23;10.27;;;;;;;32.18;63.41;100458.19;5075724;28;70530;-38
2022/09/26 07:52:46;;;;;;;11.50;10.50;;;;;;;32.15;63.46;100458.69;5071481;28;66437;-40
2022/09/26 07:55:27;;;;;;;10.98;10.23;;;;;;;32.13;63.39;100467.09;5074356;28;70460;-39
2022/09/26 07:58:03;;;;;;;12.27;10.25;;;;;;;31.96;63.41;100445.28;5082886;27;66930;-40
2022/09/26 08:00:36;;;;;;;11.07;9.45;;;;;;;32.13;63.69;100490.69;5081426;27;69733;-38
2022/09/26 08:03:29;;;;;;;12.55;9.82;;;;;;;32.04;63.49;100491.06;5077676;27;65868;-40
2022/09/26 08:06:05;;;;;;;10.95;9.27;;;;;;;32.12;63.38;100508.81;5063020;28;70000;-41
2022/09/26 08:08:37;;;;;;;12.30;8.90;;;;;;;32.11;63.67;100509.09;5077724;28;66529;-40
2022/09/26 08:11:27;;;;;;;10.68;9.63;;;;;;;32.11;63.39;100518.03;5080822;28;70549;-38
2022/09/26 08:14:18;;;;;;;10.13;9.32;;;;;;;32.03;63.21;100521.94;5071659;28;66458;-39
2022/09/26 08:17:01;;;;;;;11.93;8.75;;;;;;;32.09;63.48;100531.00;5074586;28;70300;-39
2022/09/26 08:19:33;;;;;;;10.05;9.13;;;;;;;32.03;63.46;100519.22;5079155;27;66688;-43
2022/09/26 08:22:07;;;;;;;19.65;9.25;;;;;;;32.10;63.57;100532.69;5077328;28;69902;-40
2022/09/26 08:24:40;;;;;;;12.30;8.35;;;;;;;32.09;63.59;100535.63;5073475;28;68297;-41
2022/09/26 08:27:22;;;;;;;8.93;8.05;;;;;;;32.08;63.55;100544.84;5078679;28;70736;-39
2022/09/26 08:29:55;;;;;;;9.30;8.38;;;;;;;32.02;63.73;100528.44;5076110;28;66492;-40
2022/09/26 08:32:31;;;;;;;9.18;8.25;;;;;;;32.07;63.67;100532.31;5073183;28;70613;-40
2022/09/26 08:35:05;;;;;;;10.80;7.15;;;;;;;32.05;63.72;100546.13;5080605;28;65857;-39
2022/09/26 08:38:01;;;;;;;8.55;7.72;;;;;;;31.57;63.88;100485.59;5074118;28;70591;-41
2022/09/26 08:41:39;;;;;;;8.75;8.05;;;;;;;31.88;64.02;100553.31;5032822;28;66969;-40
2022/09/26 08:46:28;;;;;;;7.75;7.07;;;;;;;31.42;63.88;100487.91;5050757;28;69815;-41
2022/09/26 08:48:25;;;;;;;6.60;6.10;;;;;;;31.96;64.21;100564.66;5072321;28;66281;-40
2022/09/26 08:51:27;;;;;;;6.93;5.97;;;;;;;31.35;63.93;100482.59;5078398;28;70495;-39
2022/09/26 08:54:10;;;;;;;6.30;5.82;;;;;;;31.94;63.87;100563.22;5075858;28;66134;-39
2022/09/26 08:56:59;;;;;;;5.65;5.25;;;;;;;31.08;63.62;100430.69;5074077;28;70591;-43
2022/09/26 08:59:41;;;;;;;5.70;5.30;;;;;;;31.88;63.85;100562.25;5093814;27;67226;-40
2022/09/26 09:02:21;;;;;;;5.47;5.18;;;;;;;31.77;63.57;100541.38;5072866;27;70772;-39
2022/09/26 09:05:05;;;;;;;5.88;5.38;;;;;;;31.90;63.45;100549.28;5071282;28;66796;-38
2022/09/26 09:07:42;;;;;;;;;;;;;;;31.54;64.64;100551.13;5085082;27;70670;-40
2022/09/26 09:10:23;;;;;;;5.40;5.00;;;;;;;31.05;63.69;100433.88;5072117;28;67348;-41
2022/09/26 09:13:30;;;;;;;5.88;5.38;;;;;;;31.85;63.94;100557.31;5070365;27;70125;-39
2022/09/26 09:16:38;;;;;;;5.13;4.82;;;;;;;31.76;63.89;100558.69;5072375;28;66434;-38
2022/09/26 09:19:45;;;;;;;4.55;4.25;;;;;;;31.72;63.97;100555.63;5070359;28;70908;-41
2022/09/26 09:22:55;;;;;;;5.50;4.97;;;;;;;31.69;64.05;100552.56;5071833;27;66850;-43
2022/09/26 09:25:55;;;;;;;5.03;4.50;;;;;;;31.76;63.87;100566.81;5074072;28;70070;-41
2022/09/26 09:29:03;;;;;;;4.88;4.57;;;;;;;31.55;64.00;100569.03;5078270;28;66915;-40
2022/09/26 09:31:44;;;;;;;4.60;4.20;;;;;;;31.75;63.81;100584.16;5074124;27;70773;-39
2022/09/26 09:34:40;;;;;;;5.97;3.97;;;;;;;31.75;64.00;100579.56;5073107;28;66228;-41
2022/09/26 09:37:48;;;;;;;4.70;4.30;;;;;;;31.35;63.91;100525.13;5073607;27;70283;-39
2022/09/26 09:40:47;;;;;;;4.40;4.10;;;;;;;31.72;63.90;100576.50;5061532;27;66588;-40
2022/09/26 09:43:46;;;;;;;4.35;3.95;;;;;;;31.57;64.20;100572.34;5072002;27;70816;-41
2022/09/26 09:46:31;;;;;;;4.20;3.90;;;;;;;31.47;65.77;100580.22;5068477;28;68976;-40
2022/09/26 09:49:08;;;;;;;6.75;3.45;;;;;;;31.28;67.34;100587.53;5066953;28;70805;-40
2022/09/26 09:52:13;;;;;;;3.90;3.60;;;;;;;31.07;68.18;100599.72;5070791;28;66879;-39
2022/09/26 09:55:15;;;;;;;4.35;3.50;;;;;;;31.04;68.72;100600.19;5070715;28;70743;-41
2022/09/26 09:58:26;;;;;;;3.22;2.38;;;;;;;30.93;69.39;100609.06;5071809;28;66226;-41
2022/09/26 10:01:24;;;;;;;2.80;2.60;;;;;;;30.92;69.34;100612.81;5067819;28;70861;-41
2022/09/26 10:04:02;;;;;;;3.30;3.08;;;;;;;30.92;69.93;100624.50;5068433;28;66906;-38
2022/09/26 10:06:40;;;;;;;3.30;3.00;;;;;;;30.94;69.59;100632.38;5075207;28;69634;-39
2022/09/26 10:09:26;;;;;;;3.80;3.50;;;;;;;30.85;69.88;100644.59;5094111;27;67463;-42
2022/09/26 10:12:31;;;;;;;6.43;3.33;;;;;;;30.45;70.12;100583.56;5077159;27;69920;-39
2022/09/26 10:15:26;;;;;;;3.50;3.30;;;;;;;30.44;70.06;100595.41;5075998;28;66895;-39
2022/09/26 10:18:21;;;;;;;4.90;3.47;;;;;;;30.39;69.99;100587.13;5073824;28;69053;-39
2022/09/26 10:21:17;;;;;;;6.18;2.70;;;;;;;30.80;70.17;100656.09;5077025;28;67306;-40
2022/09/26 10:23:50;;;;;;;4.68;2.88;;;;;;;30.83;70.74;100649.38;5072328;28;70073;-38
2022/09/26 10:26:38;;;;;;;3.85;3.50;;;;;;;30.81;70.63;100646.91;5050572;28;65925;-40
2022/09/26 10:29:33;;;;;;;4.78;2.88;;;;;;;30.63;70.98;100631.44;5073969;28;70712;-40
2022/09/26 10:32:08;;;;;;;3.65;2.90;;;;;;;30.79;70.94;100648.16;5071716;28;67605;-41
2022/09/26 10:35:17;;;;;;;4.53;3.10;;;;;;;30.68;71.70;100647.84;5090117;27;70875;-40
2022/09/26 10:38:02;;;;;;;9.20;3.33;;;;;;;30.73;72.45;100648.00;5093144;27;66592;-40
2022/09/26 10:40:46;;;;;;;4.57;3.08;;;;;;;30.68;72.31;100639.72;5072613;28;69778;-39
2022/09/26 10:43:29;;;;;;;4.00;3.70;;;;;;;30.77;72.36;100652.97;5065076;28;66147;-40
2022/09/26 10:46:12;;;;;;;5.90;3.65;;;;;;;30.78;72.71;100677.09;5077256;28;70857;-41
2022/09/26 10:49:14;;;;;;;5.40;4.55;;;;;;;30.72;72.16;100673.41;5052148;27;66853;-39
2022/09/26 10:52:29;;;;;;;10.30;4.75;;;;;;;30.64;73.23;100657.47;5018233;27;70815;-43
2022/09/26 10:55:14;;;;;;;6.25;5.28;;;;;;;30.19;73.76;100587.31;5073628;28;65983;-43
2022/09/26 10:57:51;;;;;;;5.13;4.75;;;;;;;30.61;73.63;100666.03;5069925;28;70376;-41
2022/09/26 11:00:35;;;;;;;6.22;5.03;;;;;;;30.84;71.75;100684.38;5068559;28;66422;-43
2022/09/26 11:03:38;;;;;;;4.63;4.32;;;;;;;30.51;71.09;100638.66;5077755;28;70735;-42
2022/09/26 11:06:39;;;;;;;4.90;4.50;;;;;;;30.94;70.57;100694.69;5073747;28;66229;-41
2022/09/26 11:09:27;;;;;;;5.07;4.05;;;;;;;30.97;70.73;100680.69;5073968;28;71009;-44
2022/09/26 11:12:24;;;;;;;4.10;3.80;;;;;;;30.97;70.22;100680.69;5067097;28;66136;-42
2022/09/26 11:15:04;;;;;;;4.00;3.70;;;;;;;30.38;69.63;100595.50;5062756;28;70841;-44
2022/09/26 11:17:51;;;;;;;3.35;3.08;;;;;;;30.94;70.00;100702.81;5072547;28;66032;-47
2022/09/26 11:20:35;;;;;;;4.00;3.70;;;;;;;30.79;69.57;100667.94;5068877;28;70747;-45
2022/09/26 11:23:26;;;;;;;4.28;3.50;;;;;;;30.94;69.62;100698.22;5074065;27;66717;-42
2022/09/26 11:26:11;;;;;;;5.00;4.70;;;;;;;30.91;69.21;100706.78;5077552;28;70718;-42
2022/09/26 11:29:07;;;;;;;3.80;3.50;;;;;;;30.87;69.72;100710.16;5079286;27;66837;-42
2022/09/26 11:31:56;;;;;;;4.90;3.60;;;;;;;30.59;69.59;100646.50;5076074;28;70737;-47
2022/09/26 11:35:01;;;;;;;9.13;4.53;;;;;;;30.13;69.25;100574.69;5077685;28;66875;-43
2022/09/26 11:37:38;;;;;;;5.07;4.78;;;;;;;30.94;69.41;100698.22;5090892;27;70316;-43
2022/09/26 11:40:27;;;;;;;4.72;4.43;;;;;;;30.89;69.31;100699.94;5078213;28;66327;-44
2022/09/26 11:43:09;;;;;;;4.60;4.30;;;;;;;30.68;69.00;100677.63;5060508;28;70609;-44
2022/09/26 11:46:13;;;;;;;4.60;4.30;;;;;;;30.83;69.05;100708.97;5076445;28;66151;-45
2022/09/26 11:49:11;;;;;;;4.93;4.53;;;;;;;30.89;69.07;100716.19;5075495;28;69979;-46
2022/09/26 11:52:23;;;;;;;4.45;4.15;;;;;;;30.79;69.23;100715.88;5068282;28;65885;-44
2022/09/26 11:55:16;;;;;;;5.47;5.07;;;;;;;30.86;69.08;100724.78;5074911;28;70478;-43
2022/09/26 11:58:06;;;;;;;5.05;4.65;;;;;;;30.39;69.00;100667.50;5072934;28;65985;-47
2022/09/26 12:01:06;;;;;;;5.22;4.82;;;;;;;30.78;69.08;100719.59;5078217;27;70501;-42
2022/09/26 12:04:00;;;;;;;5.68;4.88;;;;;;;30.71;68.90;100731.34;5075955;28;66338;-43
2022/09/26 12:07:01;;;;;;;4.95;4.65;;;;;;;30.31;69.14;100656.97;5073636;28;70783;-42
2022/09/26 12:09:51;;;;;;;4.93;4.53;;;;;;;30.79;69.10;100735.66;5077149;28;66472;-41
2022/09/26 12:12:33;;;;;;;5.60;5.10;;;;;;;30.28;68.96;100666.34;5069224;27;69954;-41
2022/09/26 12:15:43;;;;;;;6.70;6.07;;;;;;;30.71;69.10;100747.59;5064064;28;65982;-41
2022/09/26 12:18:31;;;;;;;6.32;5.82;;;;;;;30.31;69.37;100673.19;5075162;28;70886;-45
2022/09/26 12:21:25;;;;;;;5.13;4.82;;;;;;;30.60;69.06;100759.13;5078267;28;65165;-44
2022/09/26 12:24:27;;;;;;;5.90;5.50;;;;;;;30.59;69.33;100749.38;5070288;28;70753;-43
2022/09/26 12:27:14;;;;;;;6.10;5.50;;;;;;;30.13;69.21;100669.34;5076039;28;65712;-45
2022/09/26 12:30:10;;;;;;;6.57;6.07;;;;;;;30.61;69.31;100747.25;5074005;28;71494;-43
2022/09/26 12:32:59;;;;;;;5.95;5.47;;;;;;;30.16;69.48;100690.56;5079490;28;66821;-41
2022/09/26 12:35:42;;;;;;;7.43;5.40;;;;;;;30.66;69.41;100760.13;5068102;27;70700;-42
2022/09/26 12:38:39;;;;;;;5.32;5.03;;;;;;;30.50;69.23;100766.91;5073246;28;67110;-43
2022/09/26 12:41:50;;;;;;;5.30;4.80;;;;;;;30.51;69.18;100768.59;5069981;28;69845;-40
2022/09/26 12:44:48;;;;;;;6.00;5.60;;;;;;;29.95;71.31;100704.44;5074098;28;66428;-42